Welcome to our new website - Welkom op onze vernieuwde website - Bienvenue sur notre nouveau site web - Willkommen auf unserer neuen Website
Check our progress frequently. Prüfen Sie unsere Fortschritte regelmäßig. Consultez notre progression fréquemment. Komt u straks nog eens

KNMI Weersverwachting is alleen beschikbaar in de Nederlandse Taal, Ongeacht welke taal u kiest.
KNMI weather forecast is only available in the Dutch language, No matter what language you choose.







Meteo Oudkarspel - De weer weet site voor Langedijk

Blijf op de hoogte van het actuele weer, Keep up to date with the current weather.



Lokaal brandgevaar
CBI


Regionaal natuur brand risico: Meer informatie


Mijn Webcam 1 Meer informatie My webcam


Mijn Webcam 2 Meer informatie My webcam 2


Onweer radar Meer informatie blitzortung!


Regen radar Meer informatie rain snow radar


Bezoek onze andere website:

Template - Davis WeatherLink Version
Vantage Veu

Template - Meteotemplate

Template - HomeWeatherStation

PDøROK Multimedia

Meteo Broek Op Langedijk

Lief LangedijkLief Langedijk

Ijsvereniging Volharding

Meteo Tuitjenhorn

Meteo Delfzijl

Meteo SauwerdMeteo Sauwerd

WeerstationMeteo Sauwerd

Weerstation Noordbergum

Weerstation ParkstadWeerstation Parkstad

NPO 3FM Serious Request

Norderney



Het weer levert geen direct gevaar op.    Er zijn geen waarschuwingen afgegeven.

METAR rapporten vliegvelden

   
EBBR - Brussels International Airport, Belgium
Afstand tot: W 14 km
Gewijzigd: 24-Apr-2019 08:20
Helder  
Helder  
   Wind: Zuiden 14.8 km/h
Wind: Zuiden 14.8 km/h
Temperatuur: 16°C
Dauwpunt: 10°C
Vochtigheid: 68%
Barometer: 997 hPa
Zicht: meer dan 10 km
Bewolking: Helder
EBBR 240620Z 17008KT CAVOK 16/10 Q0997 NOSIG
EBBE - Beauvechain (Bevekom), Belgium
Afstand tot: ZZO 17 km
Gewijzigd: 24-Apr-2019 08:25
Gedeeltelijk bewolkt  
Gedeeltelijk bewolkt  
   Wind: ZZO 13 km/h
Wind: ZZO 13 km/h
Temperatuur: 16°C
Dauwpunt: 9°C
Vochtigheid: 63%
Barometer: 997 hPa
Bewolking: Gedeeltelijk bewolkt
Zicht: meer dan 10 km
Bewolking: Gedeeltelijk bewolkt 4267.2 m
EBBE 240625Z 16007KT 9999 SCT140 16/09 Q0997 BLU BLU
EBDT - Schaffen, Belgium
Afstand tot: ONO 29 km
Gewijzigd: 24-Apr-2019 08:25
Grotendeels bewolkt  
Grotendeels bewolkt  
   Wind: ZZO 7.4 km/h
Wind: ZZO 7.4 km/h
Temperatuur: 15°C
Dauwpunt: 10°C
Vochtigheid: 72%
Barometer: 998 hPa
Bewolking: Grotendeels bewolkt
Zicht: meer dan 10 km
Bewolking: Grotendeels bewolkt 3962.4 m
EBDT 240625Z 16004KT 9999 BKN130 15/10 Q0998 BLU BLU
EBAW - Antwerp/Deurne, Belgium
Afstand tot: NNW 38 km
Gewijzigd: 24-Apr-2019 08:20
Helder  
Helder  
   Wind: ZO 9.3 km/h
Wind: ZO 9.3 km/h
Temperatuur: 14°C
Dauwpunt: 11°C
Vochtigheid: 82%
Barometer: 997 hPa
Zicht: meer dan 10 km
Bewolking: Helder
EBAW 240620Z 13005KT CAVOK 14/11 Q0997 NOSIG
EBCI - Charleroi/Gosselies, Belgium
Afstand tot: ZZW 51 km
Gewijzigd: 24-Apr-2019 08:20
Helder  
Helder  
   Wind: ZZO 14.8 km/h
Wind: ZZO 14.8 km/h
Temperatuur: 16°C
Dauwpunt: 9°C
Vochtigheid: 63%
Barometer: 997 hPa
Zicht: meer dan 10 km
Bewolking: Helder
EBCI 240620Z 15008KT 120V180 CAVOK 16/09 Q0997 NOSIG
EBLG - Bierset/Liege, Belgium
Afstand tot: OZO 60 km
Gewijzigd: 24-Apr-2019 08:20
Helder  
Helder  
   Wind: ZO 14.8 km/h<br />Gust to 14.8 km/h
Wind: ZO 14.8 km/h
Gust to 14.8 km/h
Temperatuur: 16°C
Dauwpunt: 9°C
Vochtigheid: 63%
Barometer: 998 hPa
Zicht: meer dan 10 km
Bewolking: Helder
EBLG 240620Z 14008G18KT 120V200 CAVOK 16/09 Q0998 NOSIG

Script ontwikkeld door  Saratoga-weather.org Aangepast voor de template door  Weerstation Leuven

U vindt ons ook hier:

Vereniging voor Weerkunde en Klimatologie

Het Weer Aktueel

WOW Nederland KNMI

UK Metoffice

European Weather Network

WeatherCloud

Weather Underground

Benelux Weer Netwerk

AWEKAS

WeatherlinkIP

Citizen Weather Observer Program (CWOP)

HAMweather, WeatherForYou, PWS Weather

        

Apparatuur in gebruik:

Weerstation
Davis - Vantage Veu

Weerprogramma
Meteobridge

Weercomputer
Carambola2 - MeteroBridge Pro (black)

Webleverancier
1Eurohosting

Hardwareleverancier 1
Uurwerk- & Meteospecialist Vlasma

Hardwareleverancier 2
Weerhuisje

Davis - Vantage Veu

Meteobridge

Carambola2 - MeteroBridge Pro (black)

1Eurohosting

Uurwerk- & Meteospecialist Vlasma

Weerhuisje


Alles over het weer rondom het weerstation van Meteo Oudkarspel, vind je hier. Dus alles onder 1 dak.

Everything about the weather around the Meteo Oudkarspel weather station can be found here. So everything under one roof..

Dus kom regelmatig terug, So come back regularly.